sensor_id;sensor_type;location;lat;lon;timestamp;pressure;altitude;pressure_sealevel;temperature;humidity
7836;BME280;3963;42.658;23.298;2023-10-13T00:00:21;44836.38;;;-144.44;87.82
7836;BME280;3963;42.658;23.298;2023-10-13T00:03:01;44836.38;;;-144.44;87.89
7836;BME280;3963;42.658;23.298;2023-10-13T00:05:28;44852.19;;;-144.44;88.28
7836;BME280;3963;42.658;23.298;2023-10-13T00:07:56;44834.41;;;-144.44;88.38
7836;BME280;3963;42.658;23.298;2023-10-13T00:10:28;44814.66;;;-144.44;88.01
7836;BME280;3963;42.658;23.298;2023-10-13T00:12:55;44822.56;;;-144.44;87.79
7836;BME280;3963;42.658;23.298;2023-10-13T00:15:31;44814.66;;;-144.44;87.62
7836;BME280;3963;42.658;23.298;2023-10-13T00:18:04;44826.50;;;-144.44;87.98
7836;BME280;3963;42.658;23.298;2023-10-13T00:20:38;44828.47;;;-144.44;87.42
7836;BME280;3963;42.658;23.298;2023-10-13T00:23:05;44816.63;;;-144.44;87.66
7836;BME280;3963;42.658;23.298;2023-10-13T00:25:34;44858.13;;;-144.44;86.68
7836;BME280;3963;42.658;23.298;2023-10-13T00:28:09;44814.66;;;-144.44;85.88
7836;BME280;3963;42.658;23.298;2023-10-13T00:30:36;44810.69;;;-144.44;85.72
7836;BME280;3963;42.658;23.298;2023-10-13T00:33:03;44796.88;;;-144.44;85.49
7836;BME280;3963;42.658;23.298;2023-10-13T00:35:30;44820.56;;;-144.44;86.75
7836;BME280;3963;42.658;23.298;2023-10-13T00:38:02;44785.00;;;-144.44;86.64
7836;BME280;3963;42.658;23.298;2023-10-13T00:40:39;44814.66;;;-144.44;86.62
7836;BME280;3963;42.658;23.298;2023-10-13T00:43:17;44794.88;;;-144.44;87.22
7836;BME280;3963;42.658;23.298;2023-10-13T00:46:01;44812.66;;;-144.44;87.25
7836;BME280;3963;42.658;23.298;2023-10-13T00:48:40;44832.44;;;-144.44;86.63
7836;BME280;3963;42.658;23.298;2023-10-13T00:51:17;44840.34;;;-144.44;86.43
7836;BME280;3963;42.658;23.298;2023-10-13T00:53:57;44822.56;;;-144.44;86.29
7836;BME280;3963;42.658;23.298;2023-10-13T00:56:25;44798.84;;;-144.44;85.03
7836;BME280;3963;42.658;23.298;2023-10-13T00:58:53;44824.53;;;-144.44;86.02
7836;BME280;3963;42.658;23.298;2023-10-13T01:01:20;44824.53;;;-144.44;87.63
7836;BME280;3963;42.658;23.298;2023-10-13T01:03:55;44816.63;;;-144.44;88.23
7836;BME280;3963;42.658;23.298;2023-10-13T01:06:25;44796.88;;;-144.44;87.99
7836;BME280;3963;42.658;23.298;2023-10-13T01:08:57;44840.34;;;-144.44;88.33
7836;BME280;3963;42.658;23.298;2023-10-13T01:11:26;44810.69;;;-144.44;89.48
7836;BME280;3963;42.658;23.298;2023-10-13T01:13:55;44824.53;;;-144.44;89.65
7836;BME280;3963;42.658;23.298;2023-10-13T01:16:22;44822.56;;;-144.44;89.52
7836;BME280;3963;42.658;23.298;2023-10-13T01:18:52;44812.66;;;-144.44;88.77
7836;BME280;3963;42.658;23.298;2023-10-13T01:21:18;44820.56;;;-144.44;88.58
7836;BME280;3963;42.658;23.298;2023-10-13T01:23:47;44822.56;;;-144.44;87.48
7836;BME280;3963;42.658;23.298;2023-10-13T01:26:14;44812.66;;;-144.44;87.00
7836;BME280;3963;42.658;23.298;2023-10-13T01:28:47;44828.47;;;-144.44;87.50
7836;BME280;3963;42.658;23.298;2023-10-13T01:31:15;44804.75;;;-144.44;87.76
7836;BME280;3963;42.658;23.298;2023-10-13T01:33:51;44800.81;;;-144.44;88.51
7836;BME280;3963;42.658;23.298;2023-10-13T01:36:20;44816.63;;;-144.44;89.44
7836;BME280;3963;42.658;23.298;2023-10-13T01:38:48;44796.88;;;-144.44;90.21
7836;BME280;3963;42.658;23.298;2023-10-13T01:41:16;44818.59;;;-144.44;90.94
7836;BME280;3963;42.658;23.298;2023-10-13T01:43:41;44824.53;;;-144.44;90.51
7836;BME280;3963;42.658;23.298;2023-10-13T01:46:09;44814.66;;;-144.44;90.26
7836;BME280;3963;42.658;23.298;2023-10-13T01:48:35;44798.84;;;-144.44;89.16
7836;BME280;3963;42.658;23.298;2023-10-13T01:51:05;44796.88;;;-144.44;87.79
7836;BME280;3963;42.658;23.298;2023-10-13T01:53:38;44796.88;;;-144.44;88.93
7836;BME280;3963;42.658;23.298;2023-10-13T01:56:07;44788.97;;;-144.44;88.15
7836;BME280;3963;42.658;23.298;2023-10-13T01:58:37;44812.66;;;-144.44;89.92
7836;BME280;3963;42.658;23.298;2023-10-13T02:01:06;44822.56;;;-144.44;90.73
7836;BME280;3963;42.658;23.298;2023-10-13T02:03:33;44826.50;;;-144.44;91.01
7836;BME280;3963;42.658;23.298;2023-10-13T02:06:07;44790.94;;;-144.44;91.72
7836;BME280;3963;42.658;23.298;2023-10-13T02:08:35;44842.31;;;-144.44;92.16
7836;BME280;3963;42.658;23.298;2023-10-13T02:11:09;44838.34;;;-144.44;91.88
7836;BME280;3963;42.658;23.298;2023-10-13T02:13:35;44836.38;;;-144.44;91.89
7836;BME280;3963;42.658;23.298;2023-10-13T02:16:08;44822.56;;;-144.44;91.75
7836;BME280;3963;42.658;23.298;2023-10-13T02:18:34;44804.75;;;-144.44;91.50
7836;BME280;3963;42.658;23.298;2023-10-13T02:21:07;44810.69;;;-144.44;90.63
7836;BME280;3963;42.658;23.298;2023-10-13T02:23:38;44804.75;;;-144.44;89.36
7836;BME280;3963;42.658;23.298;2023-10-13T02:26:10;44814.66;;;-144.44;89.91
7836;BME280;3963;42.658;23.298;2023-10-13T02:28:38;44816.63;;;-144.44;90.20
7836;BME280;3963;42.658;23.298;2023-10-13T02:31:05;44765.25;;;-144.44;90.78
7836;BME280;3963;42.658;23.298;2023-10-13T02:33:32;44785.00;;;-144.44;90.67
7836;BME280;3963;42.658;23.298;2023-10-13T02:36:00;44812.66;;;-144.44;90.53
7836;BME280;3963;42.658;23.298;2023-10-13T02:38:29;44828.47;;;-144.44;89.98
7836;BME280;3963;42.658;23.298;2023-10-13T02:40:58;44828.47;;;-144.44;89.98
7836;BME280;3963;42.658;23.298;2023-10-13T02:43:33;44800.81;;;-144.44;89.07
7836;BME280;3963;42.658;23.298;2023-10-13T02:45:59;44783.03;;;-144.44;88.87
7836;BME280;3963;42.658;23.298;2023-10-13T02:48:28;44818.59;;;-144.44;89.49
7836;BME280;3963;42.658;23.298;2023-10-13T02:50:57;44788.97;;;-144.44;89.86
7836;BME280;3963;42.658;23.298;2023-10-13T02:53:28;44775.13;;;-144.44;90.56
7836;BME280;3963;42.658;23.298;2023-10-13T02:55:55;44822.56;;;-144.44;90.76
7836;BME280;3963;42.658;23.298;2023-10-13T02:58:24;44840.34;;;-144.44;90.69
7836;BME280;3963;42.658;23.298;2023-10-13T03:01:06;44802.78;;;-144.44;90.08
7836;BME280;3963;42.658;23.298;2023-10-13T03:03:48;44820.56;;;-144.44;89.19
7836;BME280;3963;42.658;23.298;2023-10-13T03:06:16;44804.75;;;-144.44;89.63
7836;BME280;3963;42.658;23.298;2023-10-13T03:08:43;44794.88;;;-144.44;90.45
7836;BME280;3963;42.658;23.298;2023-10-13T03:11:11;44794.88;;;-144.44;90.85
7836;BME280;3963;42.658;23.298;2023-10-13T03:13:39;44822.56;;;-144.44;92.03
7836;BME280;3963;42.658;23.298;2023-10-13T03:16:14;44812.66;;;-144.44;91.58
7836;BME280;3963;42.658;23.298;2023-10-13T03:18:43;44796.88;;;-144.44;90.31
7836;BME280;3963;42.658;23.298;2023-10-13T03:21:20;44796.88;;;-144.44;89.70
7836;BME280;3963;42.658;23.298;2023-10-13T03:23:56;44800.81;;;-144.44;90.01
7836;BME280;3963;42.658;23.298;2023-10-13T03:26:24;44792.91;;;-144.44;89.88
7836;BME280;3963;42.658;23.298;2023-10-13T03:28:50;44814.66;;;-144.44;91.04
7836;BME280;3963;42.658;23.298;2023-10-13T03:31:20;44775.13;;;-144.44;90.94
7836;BME280;3963;42.658;23.298;2023-10-13T03:33:53;44824.53;;;-144.44;90.86
7836;BME280;3963;42.658;23.298;2023-10-13T03:36:25;44794.88;;;-144.44;91.94
7836;BME280;3963;42.658;23.298;2023-10-13T03:39:09;44806.75;;;-144.44;92.49
7836;BME280;3963;42.658;23.298;2023-10-13T03:41:36;44832.44;;;-144.44;92.39
7836;BME280;3963;42.658;23.298;2023-10-13T03:44:05;44800.81;;;-144.44;93.14
7836;BME280;3963;42.658;23.298;2023-10-13T03:46:40;44824.53;;;-144.44;94.12
7836;BME280;3963;42.658;23.298;2023-10-13T03:49:08;44800.81;;;-144.44;94.22
7836;BME280;3963;42.658;23.298;2023-10-13T03:51:39;44822.56;;;-144.44;94.46
7836;BME280;3963;42.658;23.298;2023-10-13T03:54:05;44806.75;;;-144.44;94.50
7836;BME280;3963;42.658;23.298;2023-10-13T03:56:34;44818.59;;;-144.44;94.84
7836;BME280;3963;42.658;23.298;2023-10-13T03:59:06;44810.69;;;-144.44;95.82
7836;BME280;3963;42.658;23.298;2023-10-13T04:01:36;44830.44;;;-144.44;96.66
7836;BME280;3963;42.658;23.298;2023-10-13T04:04:16;44828.47;;;-144.44;96.13
7836;BME280;3963;42.658;23.298;2023-10-13T04:06:59;44826.50;;;-144.44;95.93
7836;BME280;3963;42.658;23.298;2023-10-13T04:09:39;44846.25;;;-144.44;95.64
7836;BME280;3963;42.658;23.298;2023-10-13T04:12:45;44804.75;;;-144.44;95.51
7836;BME280;3963;42.658;23.298;2023-10-13T04:15:30;44822.56;;;-144.44;94.37
7836;BME280;3963;42.658;23.298;2023-10-13T04:18:07;44820.56;;;-144.44;92.97
7836;BME280;3963;42.658;23.298;2023-10-13T04:20:54;44810.69;;;-144.44;91.64
7836;BME280;3963;42.658;23.298;2023-10-13T04:23:35;44788.97;;;-144.44;91.43
7836;BME280;3963;42.658;23.298;2023-10-13T04:26:26;44820.56;;;-144.44;91.61
7836;BME280;3963;42.658;23.298;2023-10-13T04:29:02;44798.84;;;-144.44;92.82
7836;BME280;3963;42.658;23.298;2023-10-13T04:31:36;44816.63;;;-144.44;92.80
7836;BME280;3963;42.658;23.298;2023-10-13T04:34:25;44790.94;;;-144.44;92.13
7836;BME280;3963;42.658;23.298;2023-10-13T04:36:55;44800.81;;;-144.44;91.98
7836;BME280;3963;42.658;23.298;2023-10-13T04:39:43;44816.63;;;-144.44;92.06
7836;BME280;3963;42.658;23.298;2023-10-13T04:42:09;44812.66;;;-144.44;92.03
7836;BME280;3963;42.658;23.298;2023-10-13T04:44:52;44798.84;;;-144.44;91.82
7836;BME280;3963;42.658;23.298;2023-10-13T04:47:24;44792.91;;;-144.44;91.80
7836;BME280;3963;42.658;23.298;2023-10-13T04:49:54;44810.69;;;-144.44;91.99
7836;BME280;3963;42.658;23.298;2023-10-13T04:52:27;44779.06;;;-144.44;90.97
7836;BME280;3963;42.658;23.298;2023-10-13T04:55:16;44812.66;;;-144.44;90.93
7836;BME280;3963;42.658;23.298;2023-10-13T04:57:50;44785.00;;;-144.44;91.62
7836;BME280;3963;42.658;23.298;2023-10-13T05:00:25;44816.63;;;-144.44;92.54
7836;BME280;3963;42.658;23.298;2023-10-13T05:03:10;44814.66;;;-144.44;93.16
7836;BME280;3963;42.658;23.298;2023-10-13T05:05:54;44828.47;;;-144.44;93.75
7836;BME280;3963;42.658;23.298;2023-10-13T05:08:48;44816.63;;;-144.44;94.20
7836;BME280;3963;42.658;23.298;2023-10-13T05:11:32;44812.66;;;-144.44;94.61
7836;BME280;3963;42.658;23.298;2023-10-13T05:14:16;44810.69;;;-144.44;94.98
7836;BME280;3963;42.658;23.298;2023-10-13T05:17:00;44836.38;;;-144.44;94.78
7836;BME280;3963;42.658;23.298;2023-10-13T05:19:44;44834.41;;;-144.44;94.48
7836;BME280;3963;42.658;23.298;2023-10-13T05:22:28;44836.38;;;-144.44;94.92
7836;BME280;3963;42.658;23.298;2023-10-13T05:25:14;44836.38;;;-144.44;94.22
7836;BME280;3963;42.658;23.298;2023-10-13T05:27:58;44838.34;;;-144.44;94.02
7836;BME280;3963;42.658;23.298;2023-10-13T05:30:42;44820.56;;;-144.44;93.49
7836;BME280;3963;42.658;23.298;2023-10-13T05:33:26;44834.41;;;-144.44;93.28
7836;BME280;3963;42.658;23.298;2023-10-13T05:36:11;44832.44;;;-144.44;93.29
7836;BME280;3963;42.658;23.298;2023-10-13T05:38:55;44854.16;;;-144.44;94.35
7836;BME280;3963;42.658;23.298;2023-10-13T05:41:41;44852.19;;;-144.44;94.89
7836;BME280;3963;42.658;23.298;2023-10-13T05:44:26;44860.09;;;-144.44;95.35
7836;BME280;3963;42.658;23.298;2023-10-13T05:47:18;44864.03;;;-144.44;95.68
7836;BME280;3963;42.658;23.298;2023-10-13T05:50:12;44844.28;;;-144.44;95.19
7836;BME280;3963;42.658;23.298;2023-10-13T05:52:55;44873.94;;;-144.44;95.41
7836;BME280;3963;42.658;23.298;2023-10-13T05:55:39;44868.00;;;-144.44;95.10
7836;BME280;3963;42.658;23.298;2023-10-13T05:58:24;44864.03;;;-144.44;94.48
7836;BME280;3963;42.658;23.298;2023-10-13T06:01:12;44856.13;;;-144.44;94.27
7836;BME280;3963;42.658;23.298;2023-10-13T06:03:57;44903.56;;;-144.44;94.09
7836;BME280;3963;42.658;23.298;2023-10-13T06:06:40;44869.97;;;-144.44;93.49
7836;BME280;3963;42.658;23.298;2023-10-13T06:09:24;44877.88;;;-144.44;92.67
7836;BME280;3963;42.658;23.298;2023-10-13T06:12:08;44848.25;;;-144.44;92.13
7836;BME280;3963;42.658;23.298;2023-10-13T06:14:54;44871.94;;;-144.44;91.63
7836;BME280;3963;42.658;23.298;2023-10-13T06:17:38;44822.56;;;-144.44;91.58
7836;BME280;3963;42.658;23.298;2023-10-13T06:20:22;44871.94;;;-144.44;90.73
7836;BME280;3963;42.658;23.298;2023-10-13T06:23:06;44866.03;;;-144.44;89.93
7836;BME280;3963;42.658;23.298;2023-10-13T06:25:55;44862.06;;;-144.44;89.27
7836;BME280;3963;42.658;23.298;2023-10-13T06:28:40;44866.03;;;-144.44;88.93
7836;BME280;3963;42.658;23.298;2023-10-13T06:31:12;44856.13;;;-144.44;88.74
7836;BME280;3963;42.658;23.298;2023-10-13T06:33:46;44875.91;;;-144.44;88.03
7836;BME280;3963;42.658;23.298;2023-10-13T06:36:13;44873.94;;;-144.44;87.71
7836;BME280;3963;42.658;23.298;2023-10-13T06:38:40;44846.25;;;-144.44;87.45
7836;BME280;3963;42.658;23.298;2023-10-13T06:41:07;44881.84;;;-144.44;86.54
7836;BME280;3963;42.658;23.298;2023-10-13T06:43:35;44871.94;;;-144.44;86.10
7836;BME280;3963;42.658;23.298;2023-10-13T06:46:05;44873.94;;;-144.44;85.99
7836;BME280;3963;42.658;23.298;2023-10-13T06:48:34;44868.00;;;-144.44;85.28
7836;BME280;3963;42.658;23.298;2023-10-13T06:51:01;44873.94;;;-144.44;84.92
7836;BME280;3963;42.658;23.298;2023-10-13T06:53:43;44864.03;;;-144.44;84.55
7836;BME280;3963;42.658;23.298;2023-10-13T06:56:12;44856.13;;;-144.44;83.99
7836;BME280;3963;42.658;23.298;2023-10-13T06:58:43;44868.00;;;-144.44;83.38
7836;BME280;3963;42.658;23.298;2023-10-13T07:01:12;44899.63;;;-144.44;83.24
7836;BME280;3963;42.658;23.298;2023-10-13T07:03:42;44875.91;;;-144.44;82.52
7836;BME280;3963;42.658;23.298;2023-10-13T07:06:08;44871.94;;;-144.44;82.50
7836;BME280;3963;42.658;23.298;2023-10-13T07:08:43;44879.84;;;-144.44;82.00
7836;BME280;3963;42.658;23.298;2023-10-13T07:11:17;44881.84;;;-144.44;81.45
7836;BME280;3963;42.658;23.298;2023-10-13T07:13:59;44895.66;;;-144.44;81.09
7836;BME280;3963;42.658;23.298;2023-10-13T07:16:26;44885.78;;;-144.44;80.09
7836;BME280;3963;42.658;23.298;2023-10-13T07:19:02;44883.81;;;-144.44;79.67
7836;BME280;3963;42.658;23.298;2023-10-13T07:21:33;44917.41;;;-144.44;79.21
7836;BME280;3963;42.658;23.298;2023-10-13T07:24:00;44881.84;;;-144.44;78.77
7836;BME280;3963;42.658;23.298;2023-10-13T07:26:36;44887.75;;;-144.44;78.65
7836;BME280;3963;42.658;23.298;2023-10-13T07:29:08;44895.66;;;-144.44;77.89
7836;BME280;3963;42.658;23.298;2023-10-13T07:31:36;44885.78;;;-144.44;77.40
7836;BME280;3963;42.658;23.298;2023-10-13T07:34:07;44901.59;;;-144.44;76.94
7836;BME280;3963;42.658;23.298;2023-10-13T07:36:51;44915.44;;;-144.44;75.87
7836;BME280;3963;42.658;23.298;2023-10-13T07:39:18;44899.63;;;-144.44;75.54
7836;BME280;3963;42.658;23.298;2023-10-13T07:41:49;44927.28;;;-144.44;75.13
7836;BME280;3963;42.658;23.298;2023-10-13T07:44:20;44929.25;;;-144.44;73.88
7836;BME280;3963;42.658;23.298;2023-10-13T07:46:51;44929.25;;;-144.44;72.37
7836;BME280;3963;42.658;23.298;2023-10-13T07:49:29;44915.44;;;-144.44;71.41
7836;BME280;3963;42.658;23.298;2023-10-13T07:52:02;44949.00;;;-144.44;70.15
7836;BME280;3963;42.658;23.298;2023-10-13T07:54:43;44937.16;;;-144.44;69.09
7836;BME280;3963;42.658;23.298;2023-10-13T07:57:13;44927.28;;;-144.44;67.53
7836;BME280;3963;42.658;23.298;2023-10-13T07:59:41;44945.06;;;-144.44;66.88
7836;BME280;3963;42.658;23.298;2023-10-13T08:02:14;44925.31;;;-144.44;66.52
7836;BME280;3963;42.658;23.298;2023-10-13T08:05:02;44949.00;;;-144.44;65.09
7836;BME280;3963;42.658;23.298;2023-10-13T08:07:30;44960.88;;;-144.44;63.44
7836;BME280;3963;42.658;23.298;2023-10-13T08:09:57;44966.81;;;-144.44;61.82
7836;BME280;3963;42.658;23.298;2023-10-13T08:12:25;44982.59;;;-144.44;60.32
7836;BME280;3963;42.658;23.298;2023-10-13T08:14:53;44978.66;;;-144.44;57.79
7836;BME280;3963;42.658;23.298;2023-10-13T08:17:38;45022.13;;;-144.44;53.89
7836;BME280;3963;42.658;23.298;2023-10-13T08:20:11;45004.34;;;-144.44;50.32
7836;BME280;3963;42.658;23.298;2023-10-13T08:22:38;45045.84;;;-144.44;48.53
7836;BME280;3963;42.658;23.298;2023-10-13T08:25:12;45065.59;;;-144.44;45.46
7836;BME280;3963;42.658;23.298;2023-10-13T08:27:46;45095.25;;;-144.44;43.87
7836;BME280;3963;42.658;23.298;2023-10-13T08:30:31;45093.28;;;-144.44;43.97
7836;BME280;3963;42.658;23.298;2023-10-13T08:32:59;45077.47;;;-144.44;43.39
7836;BME280;3963;42.658;23.298;2023-10-13T08:35:31;45093.28;;;-144.44;43.63
7836;BME280;3963;42.658;23.298;2023-10-13T08:38:01;45093.28;;;-144.44;42.70
7836;BME280;3963;42.658;23.298;2023-10-13T08:40:43;45115.00;;;-144.44;41.02
7836;BME280;3963;42.658;23.298;2023-10-13T08:43:43;45156.50;;;-144.44;39.41
7836;BME280;3963;42.658;23.298;2023-10-13T08:46:11;45158.50;;;-144.44;38.36
7836;BME280;3963;42.658;23.298;2023-10-13T08:48:53;45168.38;;;-144.44;37.81
7836;BME280;3963;42.658;23.298;2023-10-13T08:51:33;45152.56;;;-144.44;37.60
7836;BME280;3963;42.658;23.298;2023-10-13T08:54:12;45176.28;;;-144.44;38.10
7836;BME280;3963;42.658;23.298;2023-10-13T08:56:47;45152.56;;;-144.44;37.83
7836;BME280;3963;42.658;23.298;2023-10-13T08:59:19;45148.59;;;-144.44;38.17
7836;BME280;3963;42.658;23.298;2023-10-13T09:01:58;45160.47;;;-144.44;38.96
7836;BME280;3963;42.658;23.298;2023-10-13T09:04:25;45152.56;;;-144.44;38.44
7836;BME280;3963;42.658;23.298;2023-10-13T09:07:02;45170.34;;;-144.44;37.29
7836;BME280;3963;42.658;23.298;2023-10-13T09:09:45;45219.75;;;-144.44;35.90
7836;BME280;3963;42.658;23.298;2023-10-13T09:12:58;45247.41;;;-144.44;34.82
7836;BME280;3963;42.658;23.298;2023-10-13T09:15:29;45243.47;;;-144.44;33.96
7836;BME280;3963;42.658;23.298;2023-10-13T09:18:24;45316.59;;;-144.44;32.63
7836;BME280;3963;42.658;23.298;2023-10-13T09:21:08;45324.50;;;-144.44;32.61
7836;BME280;3963;42.658;23.298;2023-10-13T09:23:50;45296.81;;;-144.44;32.81
7836;BME280;3963;42.658;23.298;2023-10-13T09:26:35;45283.00;;;-144.44;32.82
7836;BME280;3963;42.658;23.298;2023-10-13T09:29:01;45294.84;;;-144.44;32.83
7836;BME280;3963;42.658;23.298;2023-10-13T09:31:32;45304.72;;;-144.44;32.53
7836;BME280;3963;42.658;23.298;2023-10-13T09:33:58;45334.38;;;-144.44;31.75
7836;BME280;3963;42.658;23.298;2023-10-13T09:36:29;45338.31;;;-144.44;31.35
7836;BME280;3963;42.658;23.298;2023-10-13T09:38:58;45342.28;;;-144.44;31.15
7836;BME280;3963;42.658;23.298;2023-10-13T09:41:39;45334.38;;;-144.44;31.43
7836;BME280;3963;42.658;23.298;2023-10-13T09:44:05;45340.31;;;-144.44;31.49
7836;BME280;3963;42.658;23.298;2023-10-13T09:46:37;45290.91;;;-144.44;31.71
7836;BME280;3963;42.658;23.298;2023-10-13T09:49:12;45286.94;;;-144.44;31.51
7836;BME280;3963;42.658;23.298;2023-10-13T09:51:48;45316.59;;;-144.44;31.90
7836;BME280;3963;42.658;23.298;2023-10-13T09:54:19;45271.13;;;-144.44;32.35
7836;BME280;3963;42.658;23.298;2023-10-13T09:56:50;45251.38;;;-144.44;32.85
7836;BME280;3963;42.658;23.298;2023-10-13T09:59:20;45281.00;;;-144.44;32.39
7836;BME280;3963;42.658;23.298;2023-10-13T10:01:48;45286.94;;;-144.44;31.72
7836;BME280;3963;42.658;23.298;2023-10-13T10:04:16;45302.75;;;-144.44;31.15
7836;BME280;3963;42.658;23.298;2023-10-13T10:06:51;45316.59;;;-144.44;30.99
7836;BME280;3963;42.658;23.298;2023-10-13T10:09:26;45322.53;;;-144.44;30.04
7836;BME280;3963;42.658;23.298;2023-10-13T10:12:13;45344.25;;;-144.44;29.93
7836;BME280;3963;42.658;23.298;2023-10-13T10:15:07;45373.91;;;-144.44;29.35
7836;BME280;3963;42.658;23.298;2023-10-13T10:17:39;45354.13;;;-144.44;29.43
7836;BME280;3963;42.658;23.298;2023-10-13T10:20:08;45377.84;;;-144.44;29.26
7836;BME280;3963;42.658;23.298;2023-10-13T10:22:55;45409.47;;;-144.44;28.48
7836;BME280;3963;42.658;23.298;2023-10-13T10:25:30;45437.16;;;-144.44;27.90
7836;BME280;3963;42.658;23.298;2023-10-13T10:28:01;45456.91;;;-144.44;27.66
7836;BME280;3963;42.658;23.298;2023-10-13T10:30:31;45476.66;;;-144.44;27.01
7836;BME280;3963;42.658;23.298;2023-10-13T10:33:00;45534.00;;;-144.44;26.12
7836;BME280;3963;42.658;23.298;2023-10-13T10:35:34;45617.00;;;-144.44;25.59
7836;BME280;3963;42.658;23.298;2023-10-13T10:38:09;45599.22;;;-144.44;25.15
7836;BME280;3963;42.658;23.298;2023-10-13T10:40:56;45605.13;;;-144.44;24.95
7836;BME280;3963;42.658;23.298;2023-10-13T10:43:26;45545.84;;;-144.44;25.38
7836;BME280;3963;42.658;23.298;2023-10-13T10:45:55;45561.66;;;-144.44;25.15
7836;BME280;3963;42.658;23.298;2023-10-13T10:48:25;45530.03;;;-144.44;25.47
7836;BME280;3963;42.658;23.298;2023-10-13T10:50:57;45500.38;;;-144.44;26.01
7836;BME280;3963;42.658;23.298;2023-10-13T10:53:33;45502.38;;;-144.44;25.97
7836;BME280;3963;42.658;23.298;2023-10-13T10:56:11;45502.38;;;-144.44;25.92
7836;BME280;3963;42.658;23.298;2023-10-13T10:58:53;45478.66;;;-144.44;26.05
7836;BME280;3963;42.658;23.298;2023-10-13T11:01:21;45449.00;;;-144.44;26.48
7836;BME280;3963;42.658;23.298;2023-10-13T11:03:55;45445.06;;;-144.44;26.94
7836;BME280;3963;42.658;23.298;2023-10-13T11:06:34;45476.66;;;-144.44;26.46
7836;BME280;3963;42.658;23.298;2023-10-13T11:09:04;45468.78;;;-144.44;26.35
7836;BME280;3963;42.658;23.298;2023-10-13T11:11:46;45480.63;;;-144.44;26.09
7836;BME280;3963;42.658;23.298;2023-10-13T11:14:21;45486.56;;;-144.44;26.58
7836;BME280;3963;42.658;23.298;2023-10-13T11:16:50;45470.75;;;-144.44;26.40
7836;BME280;3963;42.658;23.298;2023-10-13T11:19:19;45488.53;;;-144.44;26.42
7836;BME280;3963;42.658;23.298;2023-10-13T11:21:54;45484.56;;;-144.44;25.96
7836;BME280;3963;42.658;23.298;2023-10-13T11:24:21;45450.97;;;-144.44;26.35
7836;BME280;3963;42.658;23.298;2023-10-13T11:26:50;45437.16;;;-144.44;26.68
7836;BME280;3963;42.658;23.298;2023-10-13T11:29:18;45413.44;;;-144.44;26.65
7836;BME280;3963;42.658;23.298;2023-10-13T11:31:48;45417.38;;;-144.44;26.97
7836;BME280;3963;42.658;23.298;2023-10-13T11:34:24;45403.53;;;-144.44;27.01
7836;BME280;3963;42.658;23.298;2023-10-13T11:36:51;45399.59;;;-144.44;26.94
7836;BME280;3963;42.658;23.298;2023-10-13T11:39:18;45435.16;;;-144.44;26.93
7836;BME280;3963;42.658;23.298;2023-10-13T11:41:51;45435.16;;;-144.44;26.75
7836;BME280;3963;42.658;23.298;2023-10-13T11:44:21;45395.66;;;-144.44;26.75
7836;BME280;3963;42.658;23.298;2023-10-13T11:46:56;45379.84;;;-144.44;26.88
7836;BME280;3963;42.658;23.298;2023-10-13T11:49:32;45391.69;;;-144.44;26.89
7836;BME280;3963;42.658;23.298;2023-10-13T11:52:03;45373.91;;;-144.44;26.75
7836;BME280;3963;42.658;23.298;2023-10-13T11:54:42;45354.13;;;-144.44;27.17
7836;BME280;3963;42.658;23.298;2023-10-13T11:57:10;45362.03;;;-144.44;27.37
7836;BME280;3963;42.658;23.298;2023-10-13T11:59:37;45340.31;;;-144.44;27.31
7836;BME280;3963;42.658;23.298;2023-10-13T12:02:11;45322.53;;;-144.44;27.31
7836;BME280;3963;42.658;23.298;2023-10-13T12:04:56;45310.66;;;-144.44;27.79
7836;BME280;3963;42.658;23.298;2023-10-13T12:07:24;45296.81;;;-144.44;27.89
7836;BME280;3963;42.658;23.298;2023-10-13T12:10:06;45322.53;;;-144.44;28.11
7836;BME280;3963;42.658;23.298;2023-10-13T12:12:42;45288.91;;;-144.44;27.84
7836;BME280;3963;42.658;23.298;2023-10-13T12:15:12;45290.91;;;-144.44;27.91
7836;BME280;3963;42.658;23.298;2023-10-13T12:17:50;45298.81;;;-144.44;27.87
7836;BME280;3963;42.658;23.298;2023-10-13T12:20:17;45271.13;;;-144.44;27.91
7836;BME280;3963;42.658;23.298;2023-10-13T12:22:58;45263.22;;;-144.44;28.02
7836;BME280;3963;42.658;23.298;2023-10-13T12:25:37;45271.13;;;-144.44;27.38
7836;BME280;3963;42.658;23.298;2023-10-13T12:28:22;45265.22;;;-144.44;27.89
7836;BME280;3963;42.658;23.298;2023-10-13T12:30:51;45288.91;;;-144.44;27.95
7836;BME280;3963;42.658;23.298;2023-10-13T12:33:18;45298.81;;;-144.44;27.87
7836;BME280;3963;42.658;23.298;2023-10-13T12:35:55;45263.22;;;-144.44;28.19
7836;BME280;3963;42.658;23.298;2023-10-13T12:38:33;45273.13;;;-144.44;28.15
7836;BME280;3963;42.658;23.298;2023-10-13T12:41:47;45277.06;;;-144.44;28.19
7836;BME280;3963;42.658;23.298;2023-10-13T12:44:33;45263.22;;;-144.44;28.15
7836;BME280;3963;42.658;23.298;2023-10-13T12:47:17;45269.16;;;-144.44;28.39
7836;BME280;3963;42.658;23.298;2023-10-13T12:50:01;45255.31;;;-144.44;28.07
7836;BME280;3963;42.658;23.298;2023-10-13T12:52:39;45219.75;;;-144.44;28.45
7836;BME280;3963;42.658;23.298;2023-10-13T12:55:10;45243.47;;;-144.44;28.30
7836;BME280;3963;42.658;23.298;2023-10-13T12:57:39;45247.41;;;-144.44;28.55
7836;BME280;3963;42.658;23.298;2023-10-13T13:00:15;45225.69;;;-144.44;28.65
7836;BME280;3963;42.658;23.298;2023-10-13T13:02:58;45223.72;;;-144.44;28.03
7836;BME280;3963;42.658;23.298;2023-10-13T13:05:25;45251.38;;;-144.44;28.24
7836;BME280;3963;42.658;23.298;2023-10-13T13:07:55;45243.47;;;-144.44;28.13
7836;BME280;3963;42.658;23.298;2023-10-13T13:10:21;45235.56;;;-144.44;28.63
7836;BME280;3963;42.658;23.298;2023-10-13T13:13:02;45233.59;;;-144.44;28.64
7836;BME280;3963;42.658;23.298;2023-10-13T13:15:31;45239.50;;;-144.44;28.43
7836;BME280;3963;42.658;23.298;2023-10-13T13:17:57;45241.50;;;-144.44;27.92
7836;BME280;3963;42.658;23.298;2023-10-13T13:20:35;45207.91;;;-144.44;28.26
7836;BME280;3963;42.658;23.298;2023-10-13T13:23:04;45245.44;;;-144.44;28.35
7836;BME280;3963;42.658;23.298;2023-10-13T13:25:31;45239.50;;;-144.44;28.49
7836;BME280;3963;42.658;23.298;2023-10-13T13:27:59;45251.38;;;-144.44;28.80